Time,TemperatureF,DewpointF,PressureIn,WindDirection,WindDirectionDegrees,WindSpeedMPH,WindSpeedGustMPH,Humidity,HourlyPrecipIn,Conditions,Clouds,dailyrainin,SolarRadiationWatts/m^2,SoftwareType,DateUTC
2013-07-26 00:02:00,60.0,57.0,-100.00,ENE,65,0.0,0.0,90,-99.99,,,0.00,0.000000,,2013-07-26 04:02:00,
2013-07-26 01:10:00,59.0,57.0,-100.00,East,86,0.0,2.0,92,-99.99,,,0.00,0.000000,,2013-07-26 05:10:00,
2013-07-26 01:43:00,59.0,57.0,-100.00,East,86,0.0,2.0,92,-99.99,,,0.00,0.000000,,2013-07-26 05:43:00,
2013-07-26 01:52:00,59.0,57.0,-100.00,East,86,0.0,2.0,92,-99.99,,,0.00,0.000000,,2013-07-26 05:52:00,
2013-07-26 02:02:00,59.0,57.0,-100.00,East,86,0.0,2.0,92,-99.99,,,0.00,0.000000,,2013-07-26 06:02:00,
2013-07-26 02:10:00,58.0,56.0,-100.00,East,89,0.0,2.0,92,0.00,,,0.00,0.000000,,2013-07-26 06:10:00,
2013-07-26 02:43:00,58.0,56.0,-100.00,East,89,0.0,2.0,92,0.00,,,0.00,0.000000,,2013-07-26 06:43:00,
2013-07-26 02:52:00,58.0,56.0,-100.00,East,89,0.0,2.0,92,0.00,,,0.00,0.000000,,2013-07-26 06:52:00,
2013-07-26 03:02:00,58.0,56.0,-100.00,East,89,0.0,2.0,92,0.00,,,0.00,0.000000,,2013-07-26 07:02:00,
2013-07-26 03:10:00,58.0,56.0,-100.00,NE,40,0.0,2.0,93,0.00,,,0.00,0.000000,,2013-07-26 07:10:00,
2013-07-26 03:43:00,58.0,56.0,-100.00,NE,40,0.0,2.0,93,0.00,,,0.00,0.000000,,2013-07-26 07:43:00,
2013-07-26 03:53:00,58.0,56.0,-100.00,NE,40,0.0,2.0,93,0.00,,,0.00,0.000000,,2013-07-26 07:53:00,
2013-07-26 04:02:00,58.0,56.0,-100.00,NE,40,0.0,2.0,93,0.00,,,0.00,0.000000,,2013-07-26 08:02:00,
2013-07-26 04:10:00,57.0,55.0,-100.00,East,92,1.0,3.0,93,0.00,,,0.00,0.000000,,2013-07-26 08:10:00,
2013-07-26 04:32:00,57.0,55.0,-100.00,East,92,1.0,3.0,93,0.00,,,0.00,0.000000,,2013-07-26 08:32:00,
2013-07-26 04:44:00,57.0,55.0,-100.00,East,92,1.0,3.0,93,0.00,,,0.00,0.000000,,2013-07-26 08:44:00,
2013-07-26 04:52:00,57.0,55.0,-100.00,East,92,1.0,3.0,93,0.00,,,0.00,0.000000,,2013-07-26 08:52:00,
2013-07-26 05:02:00,57.0,55.0,-100.00,East,92,1.0,3.0,93,0.00,,,0.00,0.000000,,2013-07-26 09:02:00,
2013-07-26 05:10:00,57.0,55.0,-100.00,ENE,66,0.0,3.0,94,0.00,,,0.00,0.000000,,2013-07-26 09:10:00,
2013-07-26 05:43:00,57.0,55.0,-100.00,ENE,66,0.0,3.0,94,0.00,,,0.00,0.000000,,2013-07-26 09:43:00,
2013-07-26 05:52:00,57.0,55.0,-100.00,ENE,66,0.0,3.0,94,0.00,,,0.00,0.000000,,2013-07-26 09:52:00,
2013-07-26 06:02:00,57.0,55.0,-100.00,ENE,66,0.0,3.0,94,0.00,,,0.00,0.000000,,2013-07-26 10:02:00,
2013-07-26 06:10:00,57.0,55.0,-100.00,SSW,205,1.0,2.0,94,0.00,,,0.00,5.000000,,2013-07-26 10:10:00,
2013-07-26 06:43:00,57.0,55.0,-100.00,SSW,205,1.0,2.0,94,0.00,,,0.00,5.000000,,2013-07-26 10:43:00,
2013-07-26 06:53:00,57.0,55.0,-100.00,SSW,205,1.0,2.0,94,0.00,,,0.00,5.000000,,2013-07-26 10:53:00,
2013-07-26 07:02:00,57.0,55.0,-100.00,SSW,205,1.0,2.0,94,0.00,,,0.00,5.000000,,2013-07-26 11:02:00,
2013-07-26 07:10:00,59.0,57.0,-100.00,ENE,73,1.0,4.0,92,0.00,,,0.00,31.000000,,2013-07-26 11:10:00,
2013-07-26 07:43:00,59.0,57.0,-100.00,ENE,73,1.0,4.0,92,0.00,,,0.00,31.000000,,2013-07-26 11:43:00,
2013-07-26 07:52:00,59.0,57.0,-100.00,ENE,73,1.0,4.0,92,0.00,,,0.00,31.000000,,2013-07-26 11:52:00,
2013-07-26 08:02:00,59.0,57.0,-100.00,ENE,73,1.0,4.0,92,0.00,,,0.00,31.000000,,2013-07-26 12:02:00,
2013-07-26 08:10:00,61.0,57.0,-100.00,ENE,68,1.0,2.0,88,0.00,,,0.00,64.000000,,2013-07-26 12:10:00,
2013-07-26 08:43:00,61.0,57.0,-100.00,ENE,68,1.0,2.0,88,0.00,,,0.00,64.000000,,2013-07-26 12:43:00,
2013-07-26 08:53:00,61.0,57.0,-100.00,ENE,68,1.0,2.0,88,0.00,,,0.00,64.000000,,2013-07-26 12:53:00,
2013-07-26 09:02:00,61.0,57.0,-100.00,ENE,68,1.0,2.0,88,0.00,,,0.00,64.000000,,2013-07-26 13:02:00,
2013-07-26 09:10:00,62.0,57.0,-100.00,NNE,22,1.0,3.0,85,0.00,,,0.00,78.000000,,2013-07-26 13:10:00,
2013-07-26 09:43:00,62.0,57.0,-100.00,NNE,22,1.0,3.0,85,0.00,,,0.00,78.000000,,2013-07-26 13:43:00,
2013-07-26 09:53:00,62.0,57.0,-100.00,NNE,22,1.0,3.0,85,0.00,,,0.00,78.000000,,2013-07-26 13:53:00,
2013-07-26 10:03:00,62.0,57.0,-100.00,NNE,22,1.0,3.0,85,0.00,,,0.00,78.000000,,2013-07-26 14:03:00,
2013-07-26 10:10:00,66.0,58.0,-100.00,ESE,117,1.0,4.0,75,0.00,,,0.00,170.000000,,2013-07-26 14:10:00,
2013-07-26 10:43:00,66.0,58.0,-100.00,ESE,117,1.0,4.0,75,0.00,,,0.00,170.000000,,2013-07-26 14:43:00,
2013-07-26 10:53:00,66.0,58.0,-100.00,ESE,117,1.0,4.0,75,0.00,,,0.00,170.000000,,2013-07-26 14:53:00,
2013-07-26 11:03:00,66.0,58.0,-100.00,ESE,117,1.0,4.0,75,0.00,,,0.00,170.000000,,2013-07-26 15:03:00,
2013-07-26 11:10:00,69.0,58.0,-100.00,NW,305,2.0,6.0,69,0.00,,,0.00,207.000000,,2013-07-26 15:10:00,
2013-07-26 11:43:00,69.0,58.0,-100.00,NW,305,2.0,6.0,69,0.00,,,0.00,207.000000,,2013-07-26 15:43:00,
2013-07-26 11:53:00,69.0,58.0,-100.00,NW,305,2.0,6.0,69,0.00,,,0.00,207.000000,,2013-07-26 15:53:00,
2013-07-26 12:03:00,69.0,58.0,-100.00,NW,305,2.0,6.0,69,0.00,,,0.00,207.000000,,2013-07-26 16:03:00,
2013-07-26 12:10:00,69.0,58.0,-100.00,North,358,1.0,4.0,67,0.00,,,0.00,220.000000,,2013-07-26 16:10:00,
2013-07-26 12:43:00,69.0,58.0,-100.00,North,358,1.0,4.0,67,0.00,,,0.00,220.000000,,2013-07-26 16:43:00,
2013-07-26 12:54:00,69.0,58.0,-100.00,North,358,1.0,4.0,67,0.00,,,0.00,220.000000,,2013-07-26 16:54:00,
2013-07-26 13:03:00,69.0,58.0,-100.00,North,358,1.0,4.0,67,0.00,,,0.00,220.000000,,2013-07-26 17:03:00,
2013-07-26 13:10:00,73.0,60.0,-100.00,WNW,287,2.0,5.0,64,0.00,,,0.00,287.000000,,2013-07-26 17:10:00,
2013-07-26 13:43:00,73.0,60.0,-100.00,WNW,287,2.0,5.0,64,0.00,,,0.00,287.000000,,2013-07-26 17:43:00,
2013-07-26 13:53:00,73.0,60.0,-100.00,WNW,287,2.0,5.0,64,0.00,,,0.00,287.000000,,2013-07-26 17:53:00,
2013-07-26 14:03:00,73.0,60.0,-100.00,WNW,287,2.0,5.0,64,0.00,,,0.00,287.000000,,2013-07-26 18:03:00,
2013-07-26 14:10:00,74.0,60.0,-100.00,ENE,77,1.0,5.0,61,0.00,,,0.00,323.000000,,2013-07-26 18:10:00,
2013-07-26 14:44:00,74.0,60.0,-100.00,ENE,77,1.0,5.0,61,0.00,,,0.00,323.000000,,2013-07-26 18:44:00,
2013-07-26 14:53:00,74.0,60.0,-100.00,ENE,77,1.0,5.0,61,0.00,,,0.00,323.000000,,2013-07-26 18:53:00,
2013-07-26 15:03:00,74.0,60.0,-100.00,ENE,77,1.0,5.0,61,0.00,,,0.00,323.000000,,2013-07-26 19:03:00,
2013-07-26 15:10:00,75.0,61.0,-100.00,North,8,2.0,6.0,61,0.00,,,0.00,285.000000,,2013-07-26 19:10:00,
2013-07-26 15:32:00,75.0,61.0,-100.00,North,8,2.0,6.0,61,0.00,,,0.00,285.000000,,2013-07-26 19:32:00,
2013-07-26 15:43:00,75.0,61.0,-100.00,North,8,2.0,6.0,61,0.00,,,0.00,285.000000,,2013-07-26 19:43:00,
2013-07-26 15:52:00,75.0,61.0,-100.00,North,8,2.0,6.0,61,0.00,,,0.00,285.000000,,2013-07-26 19:52:00,
2013-07-26 16:03:00,75.0,61.0,-100.00,North,8,2.0,6.0,61,0.00,,,0.00,285.000000,,2013-07-26 20:03:00,
2013-07-26 16:10:00,75.0,62.0,-100.00,East,90,2.0,5.0,64,0.00,,,0.00,199.000000,,2013-07-26 20:10:00,
2013-07-26 16:43:00,75.0,62.0,-100.00,East,90,2.0,5.0,64,0.00,,,0.00,199.000000,,2013-07-26 20:43:00,
2013-07-26 16:53:00,75.0,62.0,-100.00,East,90,2.0,5.0,64,0.00,,,0.00,199.000000,,2013-07-26 20:53:00,
2013-07-26 17:02:00,75.0,62.0,-100.00,East,90,2.0,5.0,64,0.00,,,0.00,199.000000,,2013-07-26 21:02:00,
2013-07-26 17:10:00,73.0,60.0,-100.00,SSW,205,2.0,4.0,63,0.00,,,0.00,153.000000,,2013-07-26 21:10:00,
2013-07-26 17:43:00,73.0,60.0,-100.00,SSW,205,2.0,4.0,63,0.00,,,0.00,153.000000,,2013-07-26 21:43:00,
2013-07-26 17:53:00,73.0,60.0,-100.00,SSW,205,2.0,4.0,63,0.00,,,0.00,153.000000,,2013-07-26 21:53:00,
2013-07-26 18:02:00,73.0,60.0,-100.00,SSW,205,2.0,4.0,63,0.00,,,0.00,153.000000,,2013-07-26 22:02:00,
2013-07-26 18:10:00,71.0,59.0,-100.00,WNW,302,2.0,6.0,67,0.00,,,0.00,93.000000,,2013-07-26 22:10:00,
2013-07-26 18:43:00,71.0,59.0,-100.00,WNW,302,2.0,6.0,67,0.00,,,0.00,93.000000,,2013-07-26 22:43:00,
2013-07-26 18:53:00,71.0,59.0,-100.00,WNW,302,2.0,6.0,67,0.00,,,0.00,93.000000,,2013-07-26 22:53:00,
2013-07-26 19:02:00,71.0,59.0,-100.00,WNW,302,2.0,6.0,67,0.00,,,0.00,93.000000,,2013-07-26 23:02:00,
2013-07-26 19:10:00,71.0,59.0,-100.00,WSW,244,2.0,4.0,67,0.00,,,0.00,92.000000,,2013-07-26 23:10:00,
2013-07-26 19:43:00,71.0,59.0,-100.00,WSW,244,2.0,4.0,67,0.00,,,0.00,92.000000,,2013-07-26 23:43:00,
2013-07-26 19:53:00,71.0,59.0,-100.00,WSW,244,2.0,4.0,67,0.00,,,0.00,92.000000,,2013-07-26 23:53:00,
2013-07-26 20:02:00,71.0,59.0,-100.00,WSW,244,2.0,4.0,67,0.00,,,0.00,92.000000,,2013-07-27 00:02:00,
2013-07-26 20:10:00,67.0,58.0,-100.00,South,189,1.0,5.0,73,0.00,,,0.00,22.000000,,2013-07-27 00:10:00,
2013-07-26 20:32:00,67.0,58.0,-100.00,South,189,1.0,5.0,73,0.00,,,0.00,22.000000,,2013-07-27 00:32:00,
2013-07-26 20:43:00,67.0,58.0,-100.00,South,189,1.0,5.0,73,0.00,,,0.00,22.000000,,2013-07-27 00:43:00,
2013-07-26 20:53:00,67.0,58.0,-100.00,South,189,1.0,5.0,73,0.00,,,0.00,22.000000,,2013-07-27 00:53:00,
2013-07-26 21:02:00,67.0,58.0,-100.00,South,189,1.0,5.0,73,0.00,,,0.00,22.000000,,2013-07-27 01:02:00,
2013-07-26 21:10:00,65.0,60.0,-100.00,ESE,120,1.0,4.0,83,0.00,,,0.00,3.000000,,2013-07-27 01:10:00,
2013-07-26 21:32:00,65.0,60.0,-100.00,ESE,120,1.0,4.0,83,0.00,,,0.00,3.000000,,2013-07-27 01:32:00,
2013-07-26 21:44:00,65.0,60.0,-100.00,ESE,120,1.0,4.0,83,0.00,,,0.00,3.000000,,2013-07-27 01:44:00,
2013-07-26 21:53:00,65.0,60.0,-100.00,ESE,120,1.0,4.0,83,0.00,,,0.00,3.000000,,2013-07-27 01:53:00,
2013-07-26 22:02:00,65.0,60.0,-100.00,ESE,120,1.0,4.0,83,0.00,,,0.00,3.000000,,2013-07-27 02:02:00,
2013-07-26 22:10:00,64.0,60.0,-100.00,ESE,105,0.0,2.0,87,0.00,,,-99.99,0.000000,,2013-07-27 02:10:00,
2013-07-26 22:43:00,64.0,60.0,-100.00,ESE,105,0.0,2.0,87,0.00,,,-99.99,0.000000,,2013-07-27 02:43:00,
2013-07-26 22:53:00,64.0,60.0,-100.00,ESE,105,0.0,2.0,87,0.00,,,-99.99,0.000000,,2013-07-27 02:53:00,
2013-07-26 23:03:00,64.0,60.0,-100.00,ESE,105,0.0,2.0,87,0.00,,,-99.99,0.000000,,2013-07-27 03:03:00,
2013-07-26 23:10:00,63.0,59.0,-100.00,ESE,113,1.0,2.0,88,0.00,,,0.00,0.000000,,2013-07-27 03:10:00,
2013-07-26 23:44:00,63.0,59.0,-100.00,ESE,113,1.0,2.0,88,0.00,,,0.00,0.000000,,2013-07-27 03:44:00,
2013-07-26 23:52:00,63.0,59.0,-100.00,ESE,113,1.0,2.0,88,0.00,,,0.00,0.000000,,2013-07-27 03:52:00,